メインページ
METAR-TAF:

METAR-TAF

空港 :

Lewistown Municipal Airport

Lewistown, モンタナ州, アメリカ合衆国

緯度: 47-02-57N, 経度: 109-27-59W, 海抜: 1270m

現時点の気象観測

当レポートは34分前の23:54(UTC)に作成
西/南西の風 7kt
気温 26°C
湿度 30%
気圧 1011 hPa
視程: 16.1km
高度10000ftの雲はほとんどない

METAR: KLWT 242354Z AUTO 24007KT 10SM FEW100 26/07 A2984 RMK AO2 SLP068 T02610072 10267 20222 56009 TSNO

時間: 18:28 (00:28 UTC)

予報

当レポートは1時間8分前の23:20(UTC)に作成
予報は25日の 00時(UTC)から 25日の 24時(UTC)まで有効
変向風 6kt
視程: 10km
高度10000ftの雲はほとんどない
高度20000ftの雲は散在している
25日の 0300時(UTC)から
変向風 6kt
視程: 10km
高度7000ftの雲は散在している
高度10000ftの千切れ雲あり
25日の 1900時(UTC)から
西/北西の風 14kt、最大22ktの突風を伴う
視程: 10km
高度4000ftの雲は散在している
高度7000ftの千切れ雲あり

TAF: KLWT 242320Z 2500/2524 VRB06KT P6SM FEW100 SCT200 FM250300 VRB06KT P6SM SCT070 BKN100 FM251900 30014G22KT P6SM SCT040 BKN070

4,000以上の空港の気象観測と天気予報(METAR報とTAF報)

利用可能な観測所は地図上に黄色い丸と赤い丸で示す。

丸の上にカーソルを重ねると観測所名を参照できる。

次にクリックすると気象観測と天気予報を参照できる。

マップの切り替え:黒色「×」印の緑ボタンをクリックして拡大、「-」印の緑ボタンをクリックして縮小、緑色の三角印をクリックして隣りの地図に切り替え


METAR-TAF: